createdAt,value
2018-04-30T00:02:11.493Z,98.70
2018-04-30T00:04:39.090Z,98.80
2018-04-30T00:07:06.707Z,99.40
2018-04-30T00:09:34.296Z,99.90
2018-04-30T00:12:01.914Z,99.90
2018-04-30T00:14:29.502Z,99.90
2018-04-30T00:16:57.124Z,99.90
2018-04-30T00:19:24.715Z,99.90
2018-04-30T00:21:52.300Z,99.90
2018-04-30T00:24:19.908Z,99.90
2018-04-30T00:26:47.499Z,99.90
2018-04-30T00:29:15.121Z,99.90
2018-04-30T00:31:43.690Z,99.90
2018-04-30T00:34:12.072Z,99.90
2018-04-30T00:39:09.650Z,97.40
2018-04-30T00:41:38.022Z,97.30
2018-04-30T00:44:05.604Z,97.30
2018-04-30T00:46:33.207Z,97.40
2018-04-30T00:49:00.788Z,97.50
2018-04-30T00:51:28.399Z,97.40
2018-04-30T00:53:55.978Z,97.30
2018-04-30T00:56:23.561Z,97.30
2018-04-30T00:58:51.160Z,97.30
2018-04-30T01:01:21.280Z,96.80
2018-04-30T01:03:49.654Z,97.00
2018-04-30T01:06:18.007Z,96.70
2018-04-30T01:08:45.624Z,96.70
2018-04-30T01:11:13.584Z,96.70
2018-04-30T01:13:41.170Z,96.50
2018-04-30T01:16:08.785Z,96.10
2018-04-30T01:18:36.401Z,96.10
2018-04-30T01:21:04.021Z,95.80
2018-04-30T01:23:31.610Z,95.60
2018-04-30T01:25:59.194Z,95.80
2018-04-30T01:28:26.799Z,95.60
2018-04-30T01:30:55.156Z,95.60
2018-04-30T01:33:22.771Z,95.60
2018-04-30T01:35:50.355Z,95.50
2018-04-30T01:38:17.934Z,95.40
2018-04-30T01:40:45.553Z,95.60
2018-04-30T01:43:13.138Z,95.70
2018-04-30T01:45:40.755Z,95.80
2018-04-30T01:48:08.336Z,95.80
2018-04-30T01:50:35.918Z,96.00
2018-04-30T01:53:03.525Z,96.50
2018-04-30T01:55:31.108Z,96.00
2018-04-30T01:57:58.728Z,95.90
2018-04-30T02:00:27.089Z,95.00
2018-04-30T02:02:55.027Z,95.00
2018-04-30T02:05:22.632Z,94.50
2018-04-30T02:07:50.214Z,93.70
2018-04-30T02:10:18.595Z,93.30
2018-04-30T02:12:46.173Z,93.30
2018-04-30T02:15:13.760Z,93.40
2018-04-30T02:17:41.385Z,92.60
2018-04-30T02:20:08.999Z,93.00
2018-04-30T02:22:36.608Z,93.00
2018-04-30T02:25:04.190Z,93.10
2018-04-30T02:27:31.788Z,92.70
2018-04-30T02:29:59.404Z,92.10
2018-04-30T02:32:26.987Z,92.20
2018-04-30T02:34:54.600Z,92.90
2018-04-30T02:37:22.973Z,93.40
2018-04-30T02:39:51.323Z,93.00
2018-04-30T02:42:18.922Z,93.00
2018-04-30T02:44:48.480Z,93.90
2018-04-30T02:47:16.087Z,93.60
2018-04-30T02:49:44.681Z,94.30
2018-04-30T02:52:12.288Z,94.20
2018-04-30T02:54:39.897Z,93.90
2018-04-30T02:57:07.492Z,95.30
2018-04-30T02:59:35.108Z,94.80
2018-04-30T03:02:03.463Z,95.90
2018-04-30T03:04:31.053Z,95.90
2018-04-30T03:06:58.667Z,96.40
2018-04-30T03:09:26.249Z,96.40
2018-04-30T03:11:53.892Z,95.30
2018-04-30T03:14:21.475Z,95.60
2018-04-30T03:16:49.086Z,95.40
2018-04-30T03:19:16.701Z,94.90
2018-04-30T03:21:45.068Z,94.20
2018-04-30T03:24:12.683Z,94.20
2018-04-30T03:26:40.266Z,94.70
2018-04-30T03:29:07.892Z,94.50
2018-04-30T03:31:35.496Z,95.90
2018-04-30T03:34:03.081Z,95.70
2018-04-30T03:36:30.751Z,95.90
2018-04-30T03:38:59.098Z,96.60
2018-04-30T03:41:30.472Z,96.40
2018-04-30T03:43:58.058Z,96.30
2018-04-30T03:46:25.676Z,96.20
2018-04-30T03:48:53.268Z,96.20
2018-04-30T03:51:21.621Z,96.20
2018-04-30T03:53:50.012Z,97.00
2018-04-30T03:56:17.596Z,96.90
2018-04-30T03:58:45.201Z,98.30
2018-04-30T04:01:24.734Z,98.00
2018-04-30T04:04:04.288Z,98.50
2018-04-30T04:06:42.474Z,99.20
2018-04-30T04:09:10.077Z,98.90
2018-04-30T04:11:37.660Z,99.90
2018-04-30T04:14:06.036Z,99.90
2018-04-30T04:16:34.379Z,99.90
2018-04-30T04:19:01.965Z,99.90
2018-04-30T04:21:30.343Z,99.90
2018-04-30T04:23:58.722Z,99.90
2018-04-30T04:26:27.095Z,99.90
2018-04-30T04:28:54.684Z,99.90
2018-04-30T04:31:22.304Z,99.90
2018-04-30T04:33:49.892Z,99.90
2018-04-30T04:36:18.242Z,99.90
2018-04-30T04:38:45.858Z,99.90
2018-04-30T04:41:13.443Z,99.90
2018-04-30T04:43:41.052Z,99.90
2018-04-30T04:46:09.416Z,99.90
2018-04-30T04:48:37.032Z,99.90
2018-04-30T04:51:04.615Z,99.90
2018-04-30T04:53:32.207Z,99.90
2018-04-30T04:56:00.583Z,99.90
2018-04-30T04:58:28.952Z,99.90
2018-04-30T05:00:56.563Z,99.90
2018-04-30T05:03:24.155Z,99.90
2018-04-30T05:05:51.784Z,99.90
2018-04-30T05:08:19.375Z,99.50
2018-04-30T05:10:47.016Z,99.90
2018-04-30T05:13:14.613Z,99.90
2018-04-30T05:15:42.223Z,97.90
2018-04-30T05:18:09.835Z,98.80
2018-04-30T05:20:37.428Z,98.20
2018-04-30T05:23:05.808Z,98.20
2018-04-30T05:25:34.183Z,97.10
2018-04-30T05:28:02.538Z,98.50
2018-04-30T05:30:30.166Z,98.50
2018-04-30T05:32:57.761Z,97.00
2018-04-30T05:35:25.371Z,97.40
2018-04-30T05:37:52.982Z,97.00
2018-04-30T05:40:21.379Z,96.70
2018-04-30T05:42:49.735Z,95.80
2018-04-30T05:45:17.335Z,95.80
2018-04-30T05:47:44.949Z,96.60
2018-04-30T05:50:12.589Z,95.80
2018-04-30T05:52:40.191Z,96.60
2018-04-30T05:55:07.777Z,97.10
2018-04-30T05:57:35.390Z,96.00
2018-04-30T06:00:03.034Z,96.20
2018-04-30T06:02:30.616Z,94.80
2018-04-30T06:04:58.263Z,95.10
2018-04-30T06:07:25.848Z,94.40
2018-04-30T06:09:53.471Z,95.70
2018-04-30T06:12:21.083Z,95.20
2018-04-30T06:14:48.667Z,94.70
2018-04-30T06:17:16.268Z,96.10
2018-04-30T06:19:43.863Z,95.00
2018-04-30T06:22:11.477Z,95.10
2018-04-30T06:24:39.348Z,95.10
2018-04-30T06:27:07.009Z,95.70
2018-04-30T06:29:34.592Z,94.50
2018-04-30T06:32:02.177Z,95.10
2018-04-30T06:34:30.552Z,93.60
2018-04-30T06:36:58.136Z,93.60
2018-04-30T06:39:27.721Z,93.50
2018-04-30T06:41:55.352Z,93.50
2018-04-30T06:44:22.981Z,93.00
2018-04-30T06:46:50.560Z,93.00
2018-04-30T06:49:18.155Z,93.30
2018-04-30T06:51:45.755Z,92.90
2018-04-30T06:54:13.364Z,93.20
2018-04-30T06:56:40.976Z,92.50
2018-04-30T06:59:08.572Z,92.40
2018-04-30T07:01:36.177Z,92.30
2018-04-30T07:04:03.781Z,92.00
2018-04-30T07:06:31.367Z,92.00
2018-04-30T07:08:58.977Z,91.80
2018-04-30T07:11:26.561Z,91.60
2018-04-30T07:13:54.167Z,91.70
2018-04-30T07:16:21.751Z,91.50
2018-04-30T07:18:50.099Z,91.90
2018-04-30T07:21:17.728Z,91.90
2018-04-30T07:23:45.436Z,91.00
2018-04-30T07:26:13.816Z,91.50
2018-04-30T07:28:41.452Z,91.50
2018-04-30T07:31:09.044Z,90.20
2018-04-30T07:33:37.428Z,89.20
2018-04-30T07:36:05.790Z,87.80
2018-04-30T07:38:33.395Z,87.80
2018-04-30T07:41:00.980Z,88.70
2018-04-30T07:43:28.570Z,89.90
2018-04-30T07:45:56.177Z,87.40
2018-04-30T07:48:23.767Z,84.80
2018-04-30T07:50:51.398Z,86.60
2018-04-30T07:53:19.091Z,87.40
2018-04-30T07:55:56.423Z,84.40
2018-04-30T07:58:24.774Z,88.00
2018-04-30T08:00:52.367Z,87.90
2018-04-30T08:03:20.738Z,86.40
2018-04-30T08:05:49.080Z,82.20
2018-04-30T08:08:16.684Z,82.30
2018-04-30T08:10:45.042Z,82.60
2018-04-30T08:13:12.695Z,82.60
2018-04-30T08:15:40.279Z,79.60
2018-04-30T08:18:09.453Z,76.80
2018-04-30T08:20:37.062Z,75.80
2018-04-30T08:23:04.651Z,77.10
2018-04-30T08:25:32.252Z,77.10
2018-04-30T08:27:59.864Z,77.40
2018-04-30T08:30:27.840Z,76.40
2018-04-30T08:32:55.431Z,79.30
2018-04-30T08:35:23.012Z,77.20
2018-04-30T08:37:51.378Z,77.80
2018-04-30T08:40:19.020Z,77.70
2018-04-30T08:42:46.606Z,75.30
2018-04-30T08:45:14.195Z,76.40
2018-04-30T08:47:41.830Z,74.90
2018-04-30T08:50:09.414Z,75.50
2018-04-30T08:52:36.994Z,75.30
2018-04-30T08:55:04.655Z,74.00
2018-04-30T08:57:32.247Z,74.60
2018-04-30T08:59:59.851Z,72.40
2018-04-30T09:02:28.214Z,72.50
2018-04-30T09:04:56.588Z,76.50
2018-04-30T09:07:24.206Z,76.50
2018-04-30T09:09:54.731Z,72.40
2018-04-30T09:12:26.347Z,70.80
2018-04-30T09:14:54.771Z,71.70
2018-04-30T09:17:22.342Z,71.20
2018-04-30T09:19:49.925Z,73.70
2018-04-30T09:22:17.531Z,67.10
2018-04-30T09:24:45.116Z,67.40
2018-04-30T09:27:12.798Z,69.00
2018-04-30T09:29:40.416Z,65.30
2018-04-30T09:32:07.992Z,66.90
2018-04-30T09:34:35.619Z,64.10
2018-04-30T09:37:03.967Z,66.00
2018-04-30T09:39:31.580Z,66.00
2018-04-30T09:41:59.164Z,67.40
2018-04-30T09:44:26.749Z,65.50
2018-04-30T09:46:54.357Z,64.60
2018-04-30T09:49:22.441Z,65.80
2018-04-30T09:51:50.907Z,64.50
2018-04-30T09:54:18.495Z,63.80
2018-04-30T09:56:46.095Z,57.70
2018-04-30T09:59:13.685Z,57.90
2018-04-30T10:01:41.511Z,57.00
2018-04-30T10:04:09.130Z,58.60
2018-04-30T10:06:36.760Z,60.10
2018-04-30T10:09:06.075Z,58.70
2018-04-30T10:11:34.419Z,60.10
2018-04-30T10:14:02.077Z,60.10
2018-04-30T10:16:29.759Z,58.60
2018-04-30T10:18:57.419Z,61.40
2018-04-30T10:21:25.808Z,61.30
2018-04-30T10:23:54.200Z,62.50
2018-04-30T10:26:22.667Z,62.30
2018-04-30T10:28:51.122Z,55.10
2018-04-30T10:31:19.603Z,52.50
2018-04-30T10:33:47.197Z,52.50
2018-04-30T10:36:15.547Z,50.50
2018-04-30T10:38:43.147Z,50.40
2018-04-30T10:41:10.732Z,48.60
2018-04-30T10:43:38.348Z,49.40
2018-04-30T10:46:06.775Z,49.70
2018-04-30T10:48:35.123Z,48.50
2018-04-30T10:51:02.712Z,48.60
2018-04-30T10:53:30.296Z,51.90
2018-04-30T10:55:57.903Z,50.40
2018-04-30T10:58:26.595Z,50.70
2018-04-30T11:00:54.203Z,50.30
2018-04-30T11:03:21.787Z,48.60
2018-04-30T11:05:49.407Z,48.80
2018-04-30T11:08:16.993Z,49.50
2018-04-30T11:10:44.580Z,47.40
2018-04-30T11:13:12.965Z,45.60
2018-04-30T11:15:41.327Z,45.20
2018-04-30T11:18:08.947Z,45.20
2018-04-30T11:20:36.526Z,49.60
2018-04-30T11:23:04.118Z,45.30
2018-04-30T11:25:32.488Z,47.70
2018-04-30T11:28:00.855Z,45.80
2018-04-30T11:30:28.468Z,45.80
2018-04-30T11:32:56.050Z,46.50
2018-04-30T11:35:23.680Z,48.00
2018-04-30T11:37:51.277Z,47.30
2018-04-30T11:40:18.880Z,46.30
2018-04-30T11:42:46.530Z,46.80
2018-04-30T11:45:14.111Z,47.60
2018-04-30T11:47:41.725Z,48.10
2018-04-30T11:50:09.335Z,47.10
2018-04-30T11:52:37.961Z,44.30
2018-04-30T11:55:06.372Z,46.60
2018-04-30T11:57:33.966Z,46.70
2018-04-30T12:00:01.579Z,44.70
2018-04-30T12:02:29.349Z,44.40
2018-04-30T12:04:57.031Z,42.90
2018-04-30T12:07:24.571Z,45.60
2018-04-30T12:09:52.179Z,45.00
2018-04-30T12:12:19.924Z,41.70
2018-04-30T12:14:47.546Z,42.80
2018-04-30T12:17:15.168Z,46.00
2018-04-30T12:19:42.774Z,43.40
2018-04-30T12:22:10.656Z,43.00
2018-04-30T12:24:38.208Z,42.40
2018-04-30T12:27:06.715Z,44.90
2018-04-30T12:29:35.075Z,44.00
2018-04-30T12:32:02.663Z,43.90
2018-04-30T12:34:30.268Z,41.80
2018-04-30T12:36:57.856Z,42.30
2018-04-30T12:39:25.514Z,45.60
2018-04-30T12:41:53.095Z,44.00
2018-04-30T12:44:21.488Z,47.00
2018-04-30T12:46:49.092Z,46.60
2018-04-30T12:49:16.682Z,41.90
2018-04-30T12:51:46.219Z,43.30
2018-04-30T12:54:17.729Z,43.40
2018-04-30T12:56:45.377Z,41.10
2018-04-30T12:59:14.027Z,42.10
2018-04-30T13:01:41.648Z,42.50
2018-04-30T13:04:11.993Z,44.00
2018-04-30T13:06:39.599Z,44.00
2018-04-30T13:09:07.255Z,46.80
2018-04-30T13:11:35.314Z,44.50
2018-04-30T13:14:02.970Z,43.90
2018-04-30T13:16:30.575Z,42.30
2018-04-30T13:18:58.263Z,43.90
2018-04-30T13:21:25.886Z,43.60
2018-04-30T13:23:53.496Z,45.60
2018-04-30T13:26:21.883Z,42.10
2018-04-30T13:28:50.372Z,42.80
2018-04-30T13:31:17.975Z,42.80
2018-04-30T13:33:45.551Z,47.00
2018-04-30T13:36:13.156Z,44.50
2018-04-30T13:38:41.106Z,43.40
2018-04-30T13:41:09.473Z,42.70
2018-04-30T13:43:38.091Z,42.70
2018-04-30T13:46:05.731Z,42.50
2018-04-30T13:48:34.109Z,42.50
2018-04-30T13:51:02.460Z,45.60
2018-04-30T13:53:30.097Z,45.60
2018-04-30T13:56:00.831Z,45.40
2018-04-30T13:58:28.411Z,42.20
2018-04-30T14:00:56.011Z,41.60
2018-04-30T14:03:24.356Z,40.50
2018-04-30T14:05:51.955Z,40.50
2018-04-30T14:08:23.980Z,40.80
2018-04-30T14:10:51.597Z,40.80
2018-04-30T14:13:19.180Z,40.40
2018-04-30T14:15:46.792Z,40.20
2018-04-30T14:18:15.169Z,40.50
2018-04-30T14:20:44.551Z,42.70
2018-04-30T14:23:12.155Z,43.30
2018-04-30T14:25:39.736Z,41.80
2018-04-30T14:28:07.348Z,41.30
2018-04-30T14:30:35.704Z,39.80
2018-04-30T14:33:03.296Z,39.70
2018-04-30T14:35:31.709Z,40.00
2018-04-30T14:37:59.293Z,40.60
2018-04-30T14:40:26.902Z,40.60
2018-04-30T14:42:55.255Z,42.10
2018-04-30T14:45:22.863Z,42.10
2018-04-30T14:47:50.462Z,41.00
2018-04-30T14:50:18.045Z,42.70
2018-04-30T14:52:45.666Z,43.90
2018-04-30T14:55:13.262Z,42.60
2018-04-30T14:57:40.904Z,40.60
2018-04-30T15:00:08.490Z,41.70
2018-04-30T15:02:36.094Z,41.60
2018-04-30T15:05:03.706Z,42.80
2018-04-30T15:07:31.289Z,41.60
2018-04-30T15:09:59.725Z,42.50
2018-04-30T15:12:27.368Z,42.60
2018-04-30T15:14:54.995Z,42.80
2018-04-30T15:17:23.339Z,41.60
2018-04-30T15:19:51.984Z,41.50
2018-04-30T15:22:19.572Z,43.10
2018-04-30T15:24:47.157Z,42.20
2018-04-30T15:27:14.833Z,42.20
2018-04-30T15:29:42.407Z,43.60
2018-04-30T15:32:10.023Z,42.10
2018-04-30T15:37:19.130Z,43.80
2018-04-30T15:39:46.719Z,43.80
2018-04-30T15:42:14.296Z,42.90
2018-04-30T15:44:42.885Z,43.70
2018-04-30T15:47:11.976Z,46.00
2018-04-30T15:49:39.574Z,45.90
2018-04-30T15:52:07.176Z,42.40
2018-04-30T15:54:35.918Z,42.10
2018-04-30T15:57:04.246Z,39.40
2018-04-30T15:59:36.857Z,39.30
2018-04-30T16:02:05.206Z,43.20
2018-04-30T16:04:32.779Z,43.20
2018-04-30T16:07:00.392Z,42.90
2018-04-30T16:09:27.999Z,42.40
2018-04-30T16:11:55.610Z,41.70
2018-04-30T16:14:23.583Z,40.30
2018-04-30T16:16:51.206Z,42.60
2018-04-30T16:19:18.800Z,40.40
2018-04-30T16:21:46.388Z,41.50
2018-04-30T16:24:13.984Z,37.70
2018-04-30T16:26:41.572Z,39.00
2018-04-30T16:29:09.938Z,40.00
2018-04-30T16:31:39.215Z,42.20
2018-04-30T16:34:06.821Z,42.20
2018-04-30T16:36:34.403Z,42.70
2018-04-30T16:39:01.985Z,42.90
2018-04-30T16:41:29.595Z,42.50
2018-04-30T16:43:57.943Z,42.80
2018-04-30T16:46:25.548Z,42.70
2018-04-30T16:48:53.135Z,42.80
2018-04-30T16:51:20.751Z,42.40
2018-04-30T16:53:49.102Z,45.00
2018-04-30T16:56:16.681Z,44.90
2018-04-30T16:58:45.057Z,44.00
2018-04-30T17:01:12.634Z,44.00
2018-04-30T17:03:41.136Z,45.90
2018-04-30T17:06:09.040Z,46.00
2018-04-30T17:08:36.830Z,48.60
2018-04-30T17:11:05.481Z,50.40
2018-04-30T17:13:33.069Z,52.90
2018-04-30T17:16:00.716Z,50.70
2018-04-30T17:18:28.304Z,49.00
2018-04-30T17:20:55.958Z,46.70
2018-04-30T17:23:23.553Z,44.80
2018-04-30T17:25:51.255Z,50.50
2018-04-30T17:28:22.697Z,50.00
2018-04-30T17:30:51.230Z,46.30
2018-04-30T17:33:20.892Z,44.90
2018-04-30T17:35:48.474Z,44.90
2018-04-30T17:38:21.164Z,47.70
2018-04-30T17:40:48.747Z,51.20
2018-04-30T17:43:17.116Z,50.00
2018-04-30T17:45:44.704Z,50.00
2018-04-30T17:48:12.328Z,53.30
2018-04-30T17:50:39.938Z,54.30
2018-04-30T17:53:07.522Z,55.40
2018-04-30T17:55:35.123Z,56.90
2018-04-30T17:58:03.485Z,59.40
2018-04-30T18:00:34.523Z,59.90
2018-04-30T18:03:02.107Z,59.40
2018-04-30T18:05:30.483Z,61.60
2018-04-30T18:07:58.837Z,62.10
2018-04-30T18:10:26.436Z,62.10
2018-04-30T18:12:54.808Z,63.30
2018-04-30T18:15:25.100Z,63.80
2018-04-30T18:17:52.708Z,63.80
2018-04-30T18:20:20.300Z,66.60
2018-04-30T18:22:47.911Z,65.60
2018-04-30T18:25:16.264Z,65.90
2018-04-30T18:27:49.772Z,67.00
2018-04-30T18:30:17.347Z,66.60
2018-04-30T18:32:45.930Z,67.40
2018-04-30T18:35:18.017Z,67.50
2018-04-30T18:37:45.663Z,67.50
2018-04-30T18:40:14.037Z,68.80
2018-04-30T18:42:43.414Z,70.80
2018-04-30T18:45:11.051Z,70.80
2018-04-30T18:47:38.642Z,73.00
2018-04-30T18:50:06.506Z,71.80
2018-04-30T18:52:37.399Z,74.10
2018-04-30T18:55:04.979Z,73.80
2018-04-30T18:57:33.744Z,77.40
2018-04-30T19:00:01.682Z,79.20
2018-04-30T19:02:31.328Z,78.80
2018-04-30T19:04:58.905Z,80.10
2018-04-30T19:07:27.525Z,81.50
2018-04-30T19:09:55.133Z,80.60
2018-04-30T19:12:23.753Z,82.00
2018-04-30T19:14:51.388Z,80.90
2018-04-30T19:17:18.974Z,82.00
2018-04-30T19:19:47.591Z,83.40
2018-04-30T19:22:23.886Z,84.30
2018-04-30T19:24:51.500Z,84.20
2018-04-30T19:27:20.067Z,83.80
2018-04-30T19:29:47.646Z,79.30
2018-04-30T19:32:15.246Z,79.60
2018-04-30T19:34:42.856Z,80.90
2018-04-30T19:37:10.520Z,79.90
2018-04-30T19:39:38.155Z,77.70
2018-04-30T19:42:05.757Z,81.50
2018-04-30T19:44:33.478Z,75.80
2018-04-30T19:47:02.078Z,75.80
2018-04-30T19:49:29.702Z,78.00
2018-04-30T19:51:57.303Z,76.40
2018-04-30T19:54:24.903Z,72.80
2018-04-30T19:56:53.287Z,71.60
2018-04-30T19:59:21.644Z,71.50
2018-04-30T20:01:49.377Z,71.50
2018-04-30T20:04:16.964Z,69.80
2018-04-30T20:06:44.578Z,71.20
2018-04-30T20:09:12.155Z,72.10
2018-04-30T20:11:40.805Z,73.10
2018-04-30T20:14:09.179Z,76.40
2018-04-30T20:16:36.767Z,76.40
2018-04-30T20:19:04.371Z,75.70
2018-04-30T20:21:31.952Z,76.60
2018-04-30T20:24:00.320Z,75.70
2018-04-30T20:26:27.919Z,75.70
2018-04-30T20:28:55.524Z,74.80
2018-04-30T20:31:23.112Z,74.30
2018-04-30T20:33:51.487Z,74.30
2018-04-30T20:36:19.865Z,74.30
2018-04-30T20:38:48.220Z,74.40
2018-04-30T20:41:15.856Z,74.30
2018-04-30T20:43:43.435Z,74.70
2018-04-30T20:46:11.041Z,75.10
2018-04-30T20:48:38.634Z,75.30
2018-04-30T20:51:06.305Z,75.30
2018-04-30T20:53:33.917Z,75.20
2018-04-30T20:56:03.253Z,75.70
2018-04-30T20:58:31.883Z,75.60
2018-04-30T21:00:59.489Z,76.10
2018-04-30T21:03:27.103Z,79.40
2018-04-30T21:05:54.683Z,77.40
2018-04-30T21:08:23.040Z,75.60
2018-04-30T21:10:51.625Z,75.70
2018-04-30T21:13:19.212Z,76.70
2018-04-30T21:15:47.595Z,74.10
2018-04-30T21:18:16.020Z,76.00
2018-04-30T21:20:43.606Z,76.00
2018-04-30T21:23:11.212Z,75.80
2018-04-30T21:25:38.798Z,75.70
2018-04-30T21:28:06.423Z,73.90
2018-04-30T21:30:34.007Z,74.10
2018-04-30T21:33:01.612Z,75.20
2018-04-30T21:35:29.203Z,75.80
2018-04-30T21:37:57.577Z,74.10
2018-04-30T21:40:26.144Z,74.00
2018-04-30T21:42:53.728Z,73.90
2018-04-30T21:45:21.352Z,77.40
2018-04-30T21:47:48.937Z,76.60
2018-04-30T21:50:17.310Z,77.80
2018-04-30T21:52:45.659Z,78.20
2018-04-30T21:55:13.239Z,78.10
2018-04-30T21:57:40.857Z,77.10
2018-04-30T22:00:08.459Z,79.10
2018-04-30T22:02:36.072Z,77.30
2018-04-30T22:05:03.655Z,76.60
2018-04-30T22:07:31.260Z,77.30
2018-04-30T22:09:59.612Z,77.20
2018-04-30T22:12:27.195Z,77.10
2018-04-30T22:15:01.543Z,78.50
2018-04-30T22:17:29.139Z,78.50
2018-04-30T22:19:56.752Z,78.80
2018-04-30T22:22:25.100Z,77.60
2018-04-30T22:24:52.711Z,77.60
2018-04-30T22:27:21.220Z,78.90
2018-04-30T22:29:48.799Z,79.20
2018-04-30T22:32:16.412Z,79.00
2018-04-30T22:34:43.998Z,78.90
2018-04-30T22:37:11.611Z,79.30
2018-04-30T22:39:39.955Z,78.40
2018-04-30T22:42:10.114Z,80.10
2018-04-30T22:44:38.460Z,79.90
2018-04-30T22:47:06.043Z,79.90
2018-04-30T22:49:34.422Z,78.60
2018-04-30T22:52:02.768Z,78.90
2018-04-30T22:54:30.368Z,78.90
2018-04-30T22:56:58.726Z,79.80
2018-04-30T22:59:26.344Z,79.80
2018-04-30T23:01:53.935Z,80.10
2018-04-30T23:04:21.518Z,81.00
2018-04-30T23:06:49.897Z,80.00
2018-04-30T23:09:18.247Z,80.70
2018-04-30T23:11:45.847Z,80.70
2018-04-30T23:14:15.208Z,81.60
2018-04-30T23:16:42.815Z,81.60
2018-04-30T23:19:10.402Z,81.30
2018-04-30T23:21:37.977Z,80.60
2018-04-30T23:24:05.583Z,81.50
2018-04-30T23:26:33.934Z,81.80
2018-04-30T23:29:01.552Z,81.70
2018-04-30T23:31:29.139Z,82.40
2018-04-30T23:33:56.748Z,82.80
2018-04-30T23:36:25.099Z,83.30
2018-04-30T23:38:53.455Z,83.10
2018-04-30T23:41:21.071Z,83.20
2018-04-30T23:43:49.414Z,83.60
2018-04-30T23:46:18.523Z,84.70
2018-04-30T23:48:46.107Z,84.70
2018-04-30T23:51:14.492Z,84.00
2018-04-30T23:53:42.072Z,83.90
2018-04-30T23:56:09.656Z,84.00
2018-04-30T23:58:37.259Z,83.90
